createdAt,value
2017-09-24T00:00:18.027Z,90.18
2017-09-24T00:02:52.919Z,90.24
2017-09-24T00:05:27.564Z,90.44
2017-09-24T00:08:02.062Z,90.43
2017-09-24T00:10:36.823Z,90.33
2017-09-24T00:13:11.691Z,90.43
2017-09-24T00:15:46.431Z,90.40
2017-09-24T00:18:21.148Z,90.38
2017-09-24T00:20:55.974Z,90.59
2017-09-24T00:23:31.811Z,90.58
2017-09-24T00:26:06.313Z,90.64
2017-09-24T00:28:41.055Z,90.80
2017-09-24T00:31:15.567Z,90.93
2017-09-24T00:33:50.423Z,91.27
2017-09-24T00:36:25.251Z,91.37
2017-09-24T00:38:59.980Z,91.43
2017-09-24T00:41:34.389Z,91.36
2017-09-24T00:44:09.315Z,91.29
2017-09-24T00:46:44.000Z,91.23
2017-09-24T00:49:18.787Z,91.10
2017-09-24T00:51:53.775Z,90.95
2017-09-24T00:54:28.871Z,90.94
2017-09-24T00:57:03.584Z,90.92
2017-09-24T00:59:38.282Z,90.92
2017-09-24T01:02:13.259Z,90.87
2017-09-24T01:04:47.991Z,90.88
2017-09-24T01:07:22.622Z,90.98
2017-09-24T01:09:57.244Z,91.04
2017-09-24T01:12:32.443Z,90.99
2017-09-24T01:15:07.028Z,90.97
2017-09-24T01:17:42.037Z,90.97
2017-09-24T01:20:16.612Z,90.98
2017-09-24T01:22:51.323Z,91.07
2017-09-24T01:25:26.431Z,91.22
2017-09-24T01:28:00.811Z,91.49
2017-09-24T01:30:35.580Z,91.73
2017-09-24T01:33:10.241Z,91.71
2017-09-24T01:35:46.009Z,91.61
2017-09-24T01:38:20.699Z,91.71
2017-09-24T01:40:55.286Z,91.87
2017-09-24T01:43:29.907Z,91.95
2017-09-24T01:46:04.739Z,91.86
2017-09-24T01:48:39.495Z,91.97
2017-09-24T01:51:14.143Z,92.14
2017-09-24T01:53:48.924Z,92.21
2017-09-24T01:56:23.791Z,92.00
2017-09-24T01:58:58.404Z,91.74
2017-09-24T02:01:32.708Z,91.53
2017-09-24T02:04:07.952Z,91.40
2017-09-24T02:06:43.451Z,91.37
2017-09-24T02:09:18.343Z,91.47
2017-09-24T02:11:53.066Z,91.53
2017-09-24T02:14:27.752Z,91.58
2017-09-24T02:17:02.611Z,91.60
2017-09-24T02:19:37.656Z,91.62
2017-09-24T02:22:12.474Z,91.67
2017-09-24T02:24:47.107Z,91.64
2017-09-24T02:27:21.817Z,91.68
2017-09-24T02:29:56.391Z,91.66
2017-09-24T02:32:31.987Z,91.68
2017-09-24T02:35:06.696Z,91.54
2017-09-24T02:37:42.201Z,91.72
2017-09-24T02:40:17.775Z,91.89
2017-09-24T02:42:52.383Z,91.95
2017-09-24T02:45:27.050Z,91.81
2017-09-24T02:48:01.945Z,91.72
2017-09-24T02:50:36.643Z,91.64
2017-09-24T02:53:11.339Z,91.92
2017-09-24T02:55:45.946Z,92.05
2017-09-24T02:58:20.721Z,92.19
2017-09-24T03:00:55.356Z,92.20
2017-09-24T03:03:30.964Z,92.31
2017-09-24T03:06:06.583Z,92.43
2017-09-24T03:08:41.089Z,92.39
2017-09-24T03:11:15.803Z,92.48
2017-09-24T03:13:50.447Z,92.54
2017-09-24T03:16:25.205Z,92.57
2017-09-24T03:18:59.884Z,92.66
2017-09-24T03:21:34.808Z,92.59
2017-09-24T03:24:09.749Z,92.45
2017-09-24T03:26:44.263Z,92.36
2017-09-24T03:29:19.127Z,92.16
2017-09-24T03:31:53.745Z,92.07
2017-09-24T03:34:28.599Z,92.29
2017-09-24T03:37:03.323Z,92.51
2017-09-24T03:39:38.159Z,92.55
2017-09-24T03:42:12.560Z,92.55
2017-09-24T03:44:47.268Z,92.58
2017-09-24T03:47:22.015Z,92.54
2017-09-24T03:49:56.652Z,92.34
2017-09-24T03:52:31.366Z,92.24
2017-09-24T03:55:06.031Z,92.35
2017-09-24T03:57:40.589Z,92.19
2017-09-24T04:00:15.447Z,92.10
2017-09-24T04:02:50.397Z,92.13
2017-09-24T04:05:25.138Z,92.15
2017-09-24T04:07:59.929Z,92.16
2017-09-24T04:10:34.369Z,92.07
2017-09-24T04:13:09.203Z,91.99
2017-09-24T04:15:43.907Z,91.94
2017-09-24T04:18:18.742Z,91.80
2017-09-24T04:20:53.644Z,91.65
2017-09-24T04:23:28.573Z,91.83
2017-09-24T04:26:03.261Z,92.12
2017-09-24T04:28:37.978Z,92.28
2017-09-24T04:31:12.503Z,92.39
2017-09-24T04:33:47.013Z,92.39
2017-09-24T04:36:21.707Z,92.35
2017-09-24T04:38:56.412Z,92.24
2017-09-24T04:41:31.105Z,91.91
2017-09-24T04:44:06.035Z,91.81
2017-09-24T04:46:40.804Z,91.94
2017-09-24T04:49:15.451Z,92.03
2017-09-24T04:51:50.155Z,92.09
2017-09-24T04:54:24.875Z,92.25
2017-09-24T04:56:59.347Z,92.36
2017-09-24T04:59:34.157Z,92.48
2017-09-24T05:02:08.795Z,92.65
2017-09-24T05:04:43.694Z,92.70
2017-09-24T05:07:18.469Z,92.86
2017-09-24T05:09:53.206Z,92.91
2017-09-24T05:12:27.932Z,92.96
2017-09-24T05:15:02.722Z,92.83
2017-09-24T05:17:37.965Z,92.81
2017-09-24T05:20:13.087Z,92.81
2017-09-24T05:22:47.886Z,92.95
2017-09-24T05:25:22.519Z,93.16
2017-09-24T05:27:57.242Z,93.10
2017-09-24T05:30:31.932Z,92.91
2017-09-24T05:33:06.827Z,92.83
2017-09-24T05:35:41.621Z,92.86
2017-09-24T05:38:16.270Z,93.04
2017-09-24T05:40:51.068Z,93.25
2017-09-24T05:43:25.779Z,93.13
2017-09-24T05:46:00.693Z,93.05
2017-09-24T05:48:36.310Z,93.37
2017-09-24T05:51:10.871Z,93.53
2017-09-24T05:53:45.663Z,93.69
2017-09-24T05:56:20.373Z,93.85
2017-09-24T05:58:55.175Z,93.82
2017-09-24T06:01:30.067Z,94.00
2017-09-24T06:04:04.835Z,93.86
2017-09-24T06:06:40.116Z,93.66
2017-09-24T06:09:15.861Z,93.46
2017-09-24T06:11:51.636Z,93.15
2017-09-24T06:14:26.431Z,92.77
2017-09-24T06:17:00.906Z,92.51
2017-09-24T06:19:36.425Z,92.34
2017-09-24T06:22:12.167Z,92.12
2017-09-24T06:24:46.873Z,91.90
2017-09-24T06:27:21.193Z,91.86
2017-09-24T06:29:56.242Z,91.57
2017-09-24T06:32:30.811Z,91.42
2017-09-24T06:35:05.194Z,91.60
2017-09-24T06:37:39.823Z,91.85
2017-09-24T06:40:14.724Z,92.13
2017-09-24T06:42:49.449Z,92.29
2017-09-24T06:45:24.586Z,92.10
2017-09-24T06:47:59.403Z,92.23
2017-09-24T06:50:34.516Z,92.44
2017-09-24T06:53:09.721Z,92.38
2017-09-24T06:55:44.941Z,92.35
2017-09-24T06:58:19.554Z,92.15
2017-09-24T07:00:55.036Z,91.84
2017-09-24T07:03:29.828Z,91.73
2017-09-24T07:06:04.571Z,91.68
2017-09-24T07:08:39.231Z,91.58
2017-09-24T07:11:13.843Z,91.47
2017-09-24T07:13:48.512Z,91.40
2017-09-24T07:16:24.095Z,91.34
2017-09-24T07:18:58.824Z,91.24
2017-09-24T07:21:33.579Z,91.10
2017-09-24T07:24:08.080Z,90.94
2017-09-24T07:26:42.854Z,90.83
2017-09-24T07:29:17.559Z,90.67
2017-09-24T07:31:52.252Z,90.59
2017-09-24T07:34:26.829Z,90.44
2017-09-24T07:37:01.893Z,90.19
2017-09-24T07:39:36.270Z,89.99
2017-09-24T07:42:11.087Z,89.82
2017-09-24T07:44:46.216Z,89.75
2017-09-24T07:47:21.894Z,89.57
2017-09-24T07:49:56.960Z,89.27
2017-09-24T07:52:31.488Z,88.75
2017-09-24T07:55:06.094Z,88.49
2017-09-24T07:57:40.738Z,88.53
2017-09-24T08:00:15.379Z,88.46
2017-09-24T08:02:50.538Z,87.78
2017-09-24T08:05:25.664Z,87.19
2017-09-24T08:08:00.748Z,87.36
2017-09-24T08:10:35.468Z,85.79
2017-09-24T08:13:10.080Z,83.62
2017-09-24T08:15:44.914Z,82.55
2017-09-24T08:18:20.091Z,81.86
2017-09-24T08:20:54.643Z,80.77
2017-09-24T08:23:29.868Z,79.94
2017-09-24T08:26:05.064Z,79.02
2017-09-24T08:28:39.800Z,78.04
2017-09-24T08:31:14.424Z,77.83
2017-09-24T08:33:49.270Z,77.59
2017-09-24T08:36:24.179Z,77.67
2017-09-24T08:38:58.824Z,76.67
2017-09-24T08:41:34.007Z,76.08
2017-09-24T08:44:09.624Z,74.21
2017-09-24T08:46:44.355Z,73.96
2017-09-24T08:49:19.151Z,71.59
2017-09-24T08:51:53.904Z,71.18
2017-09-24T08:54:28.983Z,72.16
2017-09-24T08:57:03.897Z,72.70
2017-09-24T08:59:38.743Z,72.98
2017-09-24T09:02:13.464Z,71.27
2017-09-24T09:04:48.598Z,68.96
2017-09-24T09:07:23.324Z,69.65
2017-09-24T09:09:58.111Z,70.57
2017-09-24T09:12:33.248Z,71.03
2017-09-24T09:15:07.892Z,70.94
2017-09-24T09:17:42.688Z,68.78
2017-09-24T09:20:17.558Z,68.60
2017-09-24T09:22:52.311Z,67.98
2017-09-24T09:25:27.254Z,67.20
2017-09-24T09:28:02.075Z,65.70
2017-09-24T09:30:37.233Z,65.95
2017-09-24T09:33:20.673Z,65.77
2017-09-24T09:35:55.595Z,65.61
2017-09-24T09:38:30.356Z,66.30
2017-09-24T09:41:05.016Z,67.29
2017-09-24T09:43:45.171Z,67.46
2017-09-24T09:46:30.531Z,68.96
2017-09-24T09:49:05.216Z,69.09
2017-09-24T09:51:40.056Z,68.99
2017-09-24T09:54:15.016Z,68.53
2017-09-24T09:56:49.824Z,67.76
2017-09-24T09:59:24.280Z,67.60
2017-09-24T10:01:59.007Z,67.42
2017-09-24T10:04:33.636Z,66.67
2017-09-24T10:07:20.944Z,67.34
2017-09-24T10:10:07.208Z,67.74
2017-09-24T10:12:42.819Z,67.92
2017-09-24T10:15:17.725Z,68.15
2017-09-24T10:17:52.472Z,69.39
2017-09-24T10:20:27.096Z,68.19
2017-09-24T10:23:01.629Z,68.56
2017-09-24T10:25:36.659Z,69.87
2017-09-24T10:28:22.763Z,68.90
2017-09-24T10:30:58.119Z,68.10
2017-09-24T10:33:32.618Z,67.04
2017-09-24T10:36:07.602Z,65.66
2017-09-24T10:38:42.572Z,64.08
2017-09-24T10:41:17.422Z,63.09
2017-09-24T10:43:52.297Z,62.56
2017-09-24T10:46:27.491Z,62.92
2017-09-24T10:49:02.606Z,62.54
2017-09-24T10:51:37.205Z,63.39
2017-09-24T10:54:12.339Z,64.05
2017-09-24T10:56:46.804Z,63.63
2017-09-24T10:59:21.336Z,63.64
2017-09-24T11:01:56.146Z,64.31
2017-09-24T11:04:31.084Z,66.17
2017-09-24T11:07:05.795Z,66.85
2017-09-24T11:09:40.695Z,66.12
2017-09-24T11:12:15.255Z,67.48
2017-09-24T11:14:50.002Z,66.67
2017-09-24T11:17:24.746Z,66.10
2017-09-24T11:19:59.684Z,65.66
2017-09-24T11:22:34.644Z,67.37
2017-09-24T11:25:09.248Z,66.80
2017-09-24T11:27:44.972Z,66.48
2017-09-24T11:30:19.825Z,66.97
2017-09-24T11:32:54.524Z,67.09
2017-09-24T11:35:29.266Z,67.25
2017-09-24T11:38:03.884Z,67.58
2017-09-24T11:40:38.736Z,66.98
2017-09-24T11:43:13.696Z,67.14
2017-09-24T11:45:48.720Z,67.77
2017-09-24T11:48:23.552Z,67.63
2017-09-24T11:50:58.540Z,67.16
2017-09-24T11:53:33.194Z,67.82
2017-09-24T11:56:08.112Z,68.39
2017-09-24T11:58:42.707Z,68.75
2017-09-24T12:01:17.463Z,69.38
2017-09-24T12:03:51.936Z,69.59
2017-09-24T12:06:26.844Z,70.65
2017-09-24T12:09:02.552Z,70.77
2017-09-24T12:11:37.387Z,70.58
2017-09-24T12:14:12.132Z,71.46
2017-09-24T12:16:46.817Z,70.83
2017-09-24T12:19:21.692Z,71.20
2017-09-24T12:21:56.424Z,71.64
2017-09-24T12:24:31.135Z,72.67
2017-09-24T12:27:05.890Z,73.03
2017-09-24T12:29:40.778Z,72.95
2017-09-24T12:32:15.507Z,72.39
2017-09-24T12:34:50.139Z,72.68
2017-09-24T12:37:24.767Z,72.28
2017-09-24T12:39:59.499Z,72.49
2017-09-24T12:42:34.294Z,73.36
2017-09-24T12:45:09.004Z,73.68
2017-09-24T12:47:43.629Z,74.09
2017-09-24T12:50:18.308Z,74.44
2017-09-24T12:52:53.124Z,74.48
2017-09-24T12:55:28.174Z,74.90
2017-09-24T12:58:02.572Z,74.71
2017-09-24T13:00:37.694Z,75.33
2017-09-24T13:03:12.466Z,76.89
2017-09-24T13:05:47.335Z,77.49
2017-09-24T13:08:21.816Z,78.33
2017-09-24T13:10:56.367Z,79.14
2017-09-24T13:13:31.188Z,79.66
2017-09-24T13:16:06.131Z,80.08
2017-09-24T13:18:40.831Z,80.16
2017-09-24T13:21:15.583Z,80.11
2017-09-24T13:23:50.429Z,80.27
2017-09-24T13:26:25.324Z,80.59
2017-09-24T13:29:00.190Z,80.96
2017-09-24T13:31:35.015Z,81.25
2017-09-24T13:34:09.580Z,81.77
2017-09-24T13:36:44.435Z,81.77
2017-09-24T13:39:19.216Z,81.96
2017-09-24T13:41:56.047Z,81.95
2017-09-24T13:44:30.412Z,81.60
2017-09-24T13:47:05.252Z,81.79
2017-09-24T13:49:40.060Z,81.62
2017-09-24T13:52:14.585Z,81.80
2017-09-24T13:54:49.373Z,81.69
2017-09-24T13:57:24.147Z,81.95
2017-09-24T13:59:59.413Z,82.29
2017-09-24T14:02:34.217Z,82.45
2017-09-24T14:05:08.975Z,82.48
2017-09-24T14:07:43.909Z,82.64
2017-09-24T14:10:18.627Z,82.61
2017-09-24T14:12:53.460Z,82.78
2017-09-24T14:15:28.435Z,82.96
2017-09-24T14:18:03.315Z,82.87
2017-09-24T14:20:37.740Z,83.66
2017-09-24T14:23:12.600Z,83.92
2017-09-24T14:25:47.400Z,84.14
2017-09-24T14:28:21.863Z,84.49
2017-09-24T14:30:56.887Z,84.47
2017-09-24T14:33:31.179Z,84.54
2017-09-24T14:36:06.544Z,84.29
2017-09-24T14:38:41.200Z,84.09
2017-09-24T14:41:16.028Z,84.08
2017-09-24T14:43:50.827Z,83.96
2017-09-24T14:46:25.780Z,84.08
2017-09-24T14:49:00.464Z,84.21
2017-09-24T14:51:35.412Z,84.22
2017-09-24T14:54:10.244Z,84.37
2017-09-24T14:56:45.376Z,84.55
2017-09-24T14:59:20.096Z,84.47
2017-09-24T15:01:55.022Z,84.65
2017-09-24T15:04:29.786Z,84.75
2017-09-24T15:07:05.267Z,84.74
2017-09-24T15:09:39.658Z,85.09
2017-09-24T15:12:14.227Z,85.48
2017-09-24T15:14:48.854Z,85.57
2017-09-24T15:17:23.424Z,86.28
2017-09-24T15:19:58.086Z,86.70
2017-09-24T15:22:33.129Z,86.70
2017-09-24T15:25:07.845Z,87.06
2017-09-24T15:27:43.049Z,87.51
2017-09-24T15:30:17.712Z,87.75
2017-09-24T15:32:52.431Z,87.58
2017-09-24T15:35:27.251Z,87.55
2017-09-24T15:38:02.067Z,87.87
2017-09-24T15:40:37.206Z,87.98
2017-09-24T15:43:12.183Z,87.96
2017-09-24T15:45:46.815Z,88.07
2017-09-24T15:48:21.688Z,88.34
2017-09-24T15:50:56.556Z,88.40
2017-09-24T15:53:31.835Z,88.50
2017-09-24T15:56:06.395Z,88.85
2017-09-24T15:58:41.219Z,88.81
2017-09-24T16:01:15.994Z,88.86
2017-09-24T16:03:50.814Z,88.93
2017-09-24T16:06:25.587Z,88.76
2017-09-24T16:09:00.604Z,88.80
2017-09-24T16:11:35.358Z,88.84
2017-09-24T16:14:10.027Z,88.64
2017-09-24T16:16:44.782Z,88.53
2017-09-24T16:19:19.535Z,88.86
2017-09-24T16:21:54.255Z,88.94
2017-09-24T16:24:29.154Z,89.16
2017-09-24T16:27:03.896Z,89.06
2017-09-24T16:29:38.630Z,88.93
2017-09-24T16:32:13.422Z,88.67
2017-09-24T16:34:48.243Z,88.62
2017-09-24T16:37:23.078Z,88.66
2017-09-24T16:39:57.860Z,88.58
2017-09-24T16:42:33.068Z,88.69
2017-09-24T16:45:08.168Z,88.82
2017-09-24T16:47:43.077Z,88.85
2017-09-24T16:50:17.934Z,89.26
2017-09-24T16:52:52.809Z,89.52
2017-09-24T16:55:27.564Z,89.90
2017-09-24T16:58:02.841Z,89.98
2017-09-24T17:00:37.488Z,90.19
2017-09-24T17:03:12.159Z,90.42
2017-09-24T17:05:46.868Z,90.65
2017-09-24T17:08:21.917Z,90.71
2017-09-24T17:10:59.098Z,90.64
2017-09-24T17:13:34.231Z,90.69
2017-09-24T17:16:08.980Z,90.64
2017-09-24T17:18:43.803Z,90.54
2017-09-24T17:21:18.468Z,91.08
2017-09-24T17:23:53.557Z,91.24
2017-09-24T17:26:28.326Z,91.04
2017-09-24T17:29:03.053Z,91.44
2017-09-24T17:31:37.644Z,91.55
2017-09-24T17:34:12.367Z,91.48
2017-09-24T17:36:47.639Z,91.92
2017-09-24T17:39:23.276Z,92.20
2017-09-24T17:41:58.525Z,92.38
2017-09-24T17:44:33.341Z,92.25
2017-09-24T17:47:07.975Z,92.36
2017-09-24T17:49:42.730Z,92.36
2017-09-24T17:52:17.943Z,92.43
2017-09-24T17:54:53.115Z,92.61
2017-09-24T17:57:27.956Z,92.62
2017-09-24T18:00:02.939Z,92.46
2017-09-24T18:02:38.550Z,92.49
2017-09-24T18:05:13.255Z,92.43
2017-09-24T18:07:48.204Z,92.38
2017-09-24T18:10:22.985Z,92.26
2017-09-24T18:12:57.869Z,92.06
2017-09-24T18:15:32.718Z,91.92
2017-09-24T18:18:07.428Z,91.97
2017-09-24T18:20:42.109Z,91.94
2017-09-24T18:23:16.848Z,92.12
2017-09-24T18:25:51.760Z,92.16
2017-09-24T18:28:26.574Z,92.09
2017-09-24T18:31:01.216Z,92.09
2017-09-24T18:33:36.321Z,92.16
2017-09-24T18:36:11.072Z,92.20
2017-09-24T18:38:45.896Z,92.25
2017-09-24T18:41:23.996Z,92.23
2017-09-24T18:44:00.573Z,92.31
2017-09-24T18:46:35.707Z,92.14
2017-09-24T18:49:10.340Z,92.26
2017-09-24T18:51:48.814Z,92.36
2017-09-24T18:54:24.370Z,92.43
2017-09-24T18:56:58.886Z,92.38
2017-09-24T18:59:33.972Z,92.36
2017-09-24T19:02:08.628Z,92.45
2017-09-24T19:04:43.350Z,92.46
2017-09-24T19:07:18.450Z,92.40
2017-09-24T19:09:53.371Z,92.32
2017-09-24T19:12:28.186Z,92.10
2017-09-24T19:15:03.055Z,92.01
2017-09-24T19:17:37.894Z,92.10
2017-09-24T19:20:12.320Z,92.26
2017-09-24T19:22:47.800Z,92.26
2017-09-24T19:25:23.194Z,92.54
2017-09-24T19:27:58.019Z,92.63
2017-09-24T19:30:33.808Z,92.68
2017-09-24T19:33:08.476Z,92.75
2017-09-24T19:35:45.972Z,92.85
2017-09-24T19:38:21.272Z,92.85
2017-09-24T19:40:56.291Z,92.79
2017-09-24T19:43:30.876Z,92.68
2017-09-24T19:46:06.589Z,92.77
2017-09-24T19:48:41.004Z,92.92
2017-09-24T19:51:15.874Z,92.95
2017-09-24T19:53:50.796Z,92.95
2017-09-24T19:56:25.656Z,92.92
2017-09-24T19:59:00.602Z,93.13
2017-09-24T20:01:35.300Z,93.11
2017-09-24T20:04:10.024Z,93.11
2017-09-24T20:06:45.080Z,93.24
2017-09-24T20:09:19.912Z,93.14
2017-09-24T20:11:55.008Z,93.10
2017-09-24T20:14:29.882Z,93.03
2017-09-24T20:17:04.512Z,92.85
2017-09-24T20:19:39.473Z,92.66
2017-09-24T20:22:14.270Z,92.66
2017-09-24T20:24:49.195Z,92.69
2017-09-24T20:27:24.260Z,92.71
2017-09-24T20:29:59.098Z,92.73
2017-09-24T20:32:37.408Z,92.74
2017-09-24T20:35:11.817Z,92.66
2017-09-24T20:37:48.083Z,92.81
2017-09-24T20:40:24.297Z,92.94
2017-09-24T20:42:59.707Z,93.01
2017-09-24T20:45:34.460Z,93.07
2017-09-24T20:48:09.028Z,93.06
2017-09-24T20:50:45.323Z,93.20
2017-09-24T20:53:20.514Z,93.16
2017-09-24T20:55:56.366Z,93.03
2017-09-24T20:58:34.291Z,92.94
2017-09-24T21:01:09.240Z,93.00
2017-09-24T21:03:44.468Z,93.02
2017-09-24T21:06:18.960Z,93.18
2017-09-24T21:08:53.591Z,93.20
2017-09-24T21:11:31.216Z,93.31
2017-09-24T21:14:08.921Z,93.37
2017-09-24T21:16:47.100Z,93.58
2017-09-24T21:19:22.156Z,93.75
2017-09-24T21:21:57.008Z,94.21
2017-09-24T21:24:32.011Z,94.41
2017-09-24T21:27:07.033Z,94.61
2017-09-24T21:29:42.186Z,94.86
2017-09-24T21:32:17.450Z,95.02
2017-09-24T21:34:52.911Z,94.78
2017-09-24T21:37:27.841Z,94.65
2017-09-24T21:40:03.059Z,94.56
2017-09-24T21:42:37.757Z,94.41
2017-09-24T21:45:12.360Z,94.09
2017-09-24T21:47:47.164Z,94.22
2017-09-24T21:50:21.941Z,94.11
2017-09-24T21:52:56.570Z,94.30
2017-09-24T21:55:31.959Z,94.73
2017-09-24T21:58:06.699Z,95.10
2017-09-24T22:00:41.680Z,95.04
2017-09-24T22:03:16.402Z,94.81
2017-09-24T22:05:51.144Z,95.04
2017-09-24T22:08:26.298Z,95.09
2017-09-24T22:11:01.952Z,95.14
2017-09-24T22:13:36.700Z,95.72
2017-09-24T22:16:11.810Z,95.85
2017-09-24T22:18:46.736Z,95.91
2017-09-24T22:21:21.540Z,95.72
2017-09-24T22:23:56.502Z,96.20
2017-09-24T22:26:35.644Z,96.65
2017-09-24T22:29:10.910Z,96.72
2017-09-24T22:31:46.540Z,96.45
2017-09-24T22:34:21.805Z,96.75
2017-09-24T22:36:56.712Z,96.81
2017-09-24T22:39:31.846Z,96.90
2017-09-24T22:42:06.777Z,97.19
2017-09-24T22:44:41.710Z,97.36
2017-09-24T22:47:16.799Z,97.12
2017-09-24T22:49:51.772Z,96.82
2017-09-24T22:52:26.902Z,96.48
2017-09-24T22:55:01.775Z,96.16
2017-09-24T22:57:36.503Z,95.81
2017-09-24T23:00:11.375Z,95.46
2017-09-24T23:02:46.374Z,95.15
2017-09-24T23:05:20.892Z,94.98
2017-09-24T23:07:55.656Z,94.93
2017-09-24T23:10:34.538Z,94.85
2017-09-24T23:13:11.405Z,94.78
2017-09-24T23:15:45.696Z,94.62
2017-09-24T23:18:22.246Z,94.48
2017-09-24T23:20:58.516Z,94.22
2017-09-24T23:23:33.472Z,94.24
2017-09-24T23:26:08.532Z,94.17
2017-09-24T23:28:44.563Z,94.24
2017-09-24T23:31:20.759Z,94.42
2017-09-24T23:33:55.637Z,94.46
2017-09-24T23:36:32.255Z,94.49
2017-09-24T23:39:07.286Z,94.72
2017-09-24T23:41:42.157Z,94.89
2017-09-24T23:44:17.228Z,95.21
2017-09-24T23:46:52.734Z,95.81
2017-09-24T23:49:29.433Z,96.63
2017-09-24T23:52:08.839Z,97.36
2017-09-24T23:54:44.045Z,97.40
2017-09-24T23:57:18.984Z,97.22
2017-09-24T23:59:53.986Z,96.88
